Aviation Digital Data Service (ADDS)

Output produced by METARs form (1906 UTC 19 April 2015)
found at http://aviationweather.gov/adds/metars/
 
KGSO 191724Z 1918/2018 12012KT P6SM SCT004 OVC012 
     TEMPO 1918/1920 2SM -SHRA BR OVC005 
     FM192200 14012G22KT 2SM -RA BR OVC004 
     TEMPO 1923/2002 1/2SM +RA FG OVC002 
     FM200600 22012KT 5SM BR OVC005 
     FM201500 24012G25KT P6SM BKN025